createdAt,value
2023-04-18T00:02:39.858Z,14.23
2023-04-18T00:05:47.954Z,15.23
2023-04-18T00:08:52.537Z,13.93
2023-04-18T00:11:56.815Z,15.13
2023-04-18T00:18:08.340Z,14.23
2023-04-18T00:21:13.856Z,12.48
2023-04-18T00:24:18.124Z,13.30
2023-04-18T00:27:22.360Z,13.70
2023-04-18T00:30:27.108Z,13.77
2023-04-18T00:33:31.524Z,12.90
2023-04-18T00:36:35.955Z,14.02
2023-04-18T00:39:39.996Z,12.18
2023-04-18T00:42:44.408Z,13.48
2023-04-18T00:45:48.767Z,13.80
2023-04-18T00:48:53.421Z,14.65
2023-04-18T00:51:57.667Z,14.23
2023-04-18T00:55:05.928Z,14.20
2023-04-18T00:58:10.613Z,14.18
2023-04-18T01:01:15.195Z,13.88
2023-04-18T01:04:19.644Z,12.63
2023-04-18T01:07:25.500Z,13.40
2023-04-18T01:10:31.110Z,14.63
2023-04-18T01:13:35.536Z,13.70
2023-04-18T01:16:40.017Z,14.45
2023-04-18T01:19:44.494Z,14.40
2023-04-18T01:22:48.519Z,13.18
2023-04-18T01:25:52.753Z,13.60
2023-04-18T01:28:57.025Z,13.00
2023-04-18T01:32:02.475Z,12.60
2023-04-18T01:35:07.463Z,12.02
2023-04-18T01:38:11.869Z,12.45
2023-04-18T01:41:16.246Z,12.90
2023-04-18T01:44:20.418Z,13.13
2023-04-18T01:47:24.573Z,12.90
2023-04-18T01:50:29.330Z,13.65
2023-04-18T01:53:33.546Z,12.98
2023-04-18T01:56:37.802Z,12.50
2023-04-18T01:59:42.076Z,12.25
2023-04-18T02:02:46.447Z,13.63
2023-04-18T02:05:51.699Z,13.27
2023-04-18T02:08:56.113Z,13.25
2023-04-18T02:12:02.705Z,13.52
2023-04-18T02:15:07.846Z,13.50
2023-04-18T02:18:12.612Z,13.95
2023-04-18T02:21:16.739Z,14.30
2023-04-18T02:24:20.882Z,14.88
2023-04-18T02:27:25.341Z,14.48
2023-04-18T02:44:52.564Z,16.30
2023-04-18T02:47:57.084Z,16.65
2023-04-18T02:51:07.765Z,16.63
2023-04-18T02:54:12.626Z,15.63
2023-04-18T02:57:17.478Z,17.08
2023-04-18T03:00:21.776Z,16.40
2023-04-18T03:03:26.144Z,15.60
2023-04-18T03:06:31.720Z,16.23
2023-04-18T03:09:35.971Z,15.90
2023-04-18T03:12:40.518Z,15.40
2023-04-18T03:15:44.931Z,16.50
2023-04-18T03:18:49.102Z,15.77
2023-04-18T03:21:53.448Z,16.05
2023-04-18T03:24:57.798Z,16.40
2023-04-18T03:28:02.129Z,15.48
2023-04-18T03:31:07.066Z,15.68
2023-04-18T03:34:11.617Z,16.08
2023-04-18T03:37:16.035Z,16.83
2023-04-18T03:40:20.648Z,16.25
2023-04-18T03:43:24.864Z,16.38
2023-04-18T03:46:29.735Z,17.35
2023-04-18T03:49:34.153Z,16.98
2023-04-18T03:52:38.395Z,17.83
2023-04-18T03:55:43.481Z,16.92
2023-04-18T03:58:48.126Z,16.48
2023-04-18T04:01:52.565Z,17.98
2023-04-18T04:04:57.846Z,17.30
2023-04-18T04:08:02.290Z,18.65
2023-04-18T04:11:06.429Z,18.95
2023-04-18T04:14:11.056Z,17.77
2023-04-18T04:17:15.974Z,16.55
2023-04-18T04:20:24.173Z,17.25
2023-04-18T04:23:28.860Z,16.23
2023-04-18T04:26:35.650Z,18.05
2023-04-18T04:29:41.209Z,16.23
2023-04-18T04:32:45.889Z,16.02
2023-04-18T04:35:50.784Z,15.60
2023-04-18T04:38:55.263Z,14.85
2023-04-18T04:42:04.391Z,16.77
2023-04-18T04:45:10.420Z,16.02
2023-04-18T04:48:14.793Z,15.32
2023-04-18T04:51:19.024Z,16.17
2023-04-18T04:54:23.397Z,15.48
2023-04-18T04:57:27.854Z,14.90
2023-04-18T05:00:32.073Z,15.05
2023-04-18T05:03:36.803Z,13.50
2023-04-18T05:06:41.379Z,13.70
2023-04-18T05:09:45.581Z,14.15
2023-04-18T05:12:49.830Z,11.55
2023-04-18T05:15:54.100Z,13.07
2023-04-18T05:18:58.555Z,13.45
2023-04-18T05:22:03.134Z,12.15
2023-04-18T05:25:08.317Z,12.65
2023-04-18T05:28:12.447Z,10.75
2023-04-18T05:31:16.904Z,10.45
2023-04-18T05:34:21.613Z,11.15
2023-04-18T05:37:26.129Z,10.57
2023-04-18T05:40:30.968Z,9.63
2023-04-18T05:43:35.648Z,10.70
2023-04-18T05:46:40.142Z,9.40
2023-04-18T05:49:44.885Z,10.07
2023-04-18T05:52:49.293Z,9.13
2023-04-18T05:55:55.102Z,9.23
2023-04-18T05:58:59.304Z,9.88
2023-04-18T06:02:03.721Z,9.07
2023-04-18T06:05:09.362Z,10.18
2023-04-18T06:08:14.242Z,8.60
2023-04-18T06:11:21.182Z,9.82
2023-04-18T06:14:26.116Z,9.20
2023-04-18T06:17:30.965Z,9.80
2023-04-18T06:20:35.343Z,10.50
2023-04-18T06:23:39.546Z,10.45
2023-04-18T06:26:44.244Z,9.48
2023-04-18T06:29:49.056Z,9.52
2023-04-18T06:32:53.735Z,8.80
2023-04-18T06:35:58.539Z,8.63
2023-04-18T06:39:02.714Z,8.70
2023-04-18T06:42:06.936Z,9.65
2023-04-18T06:45:12.143Z,9.40
2023-04-18T06:48:16.852Z,8.75
2023-04-18T06:51:21.044Z,9.35
2023-04-18T06:57:29.821Z,9.77
2023-04-18T07:00:34.351Z,9.77
2023-04-18T07:03:38.994Z,10.05
2023-04-18T07:06:43.694Z,10.88
2023-04-18T07:09:49.120Z,9.45
2023-04-18T07:12:53.385Z,9.63
2023-04-18T07:15:57.709Z,10.00
2023-04-18T07:19:02.638Z,10.70
2023-04-18T07:22:07.050Z,10.48
2023-04-18T07:25:11.523Z,10.50
2023-04-18T07:28:16.589Z,11.65
2023-04-18T07:31:20.733Z,10.50
2023-04-18T07:34:29.586Z,9.70
2023-04-18T07:37:33.905Z,10.88
2023-04-18T07:40:38.717Z,10.13
2023-04-18T07:43:44.818Z,10.25
2023-04-18T07:46:49.689Z,10.50
2023-04-18T07:49:54.668Z,10.68
2023-04-18T07:52:59.011Z,10.38
2023-04-18T07:56:03.396Z,9.93
2023-04-18T07:59:07.909Z,10.95
2023-04-18T08:02:12.589Z,10.43
2023-04-18T08:05:19.819Z,10.68
2023-04-18T08:08:24.160Z,10.05
2023-04-18T08:14:32.671Z,11.05
2023-04-18T08:17:38.870Z,10.85
2023-04-18T08:20:43.772Z,11.00
2023-04-18T08:23:48.190Z,10.77
2023-04-18T08:26:52.613Z,11.18
2023-04-18T08:29:58.095Z,10.43
2023-04-18T08:33:03.157Z,9.63
2023-04-18T08:36:07.964Z,11.63
2023-04-18T08:39:12.742Z,11.60
2023-04-18T08:42:21.469Z,10.68
2023-04-18T08:45:26.321Z,11.13
2023-04-18T08:48:31.002Z,12.25
2023-04-18T08:51:39.590Z,11.80
2023-04-18T08:54:46.647Z,10.73
2023-04-18T08:57:54.172Z,11.05
2023-04-18T09:00:58.900Z,11.45
2023-04-18T09:04:03.211Z,10.95
2023-04-18T09:07:12.157Z,11.68
2023-04-18T09:10:27.535Z,11.13
2023-04-18T09:13:47.425Z,10.90
2023-04-18T09:16:51.885Z,11.55
2023-04-18T09:19:56.707Z,11.80
2023-04-18T09:23:03.889Z,11.82
2023-04-18T09:26:08.152Z,11.13
2023-04-18T09:29:13.511Z,10.63
2023-04-18T09:32:25.139Z,12.07
2023-04-18T09:35:30.004Z,11.18
2023-04-18T09:38:41.409Z,11.63
2023-04-18T09:42:00.725Z,11.15
2023-04-18T09:45:08.278Z,10.00
2023-04-18T09:48:12.581Z,10.75
2023-04-18T09:51:18.044Z,10.20
2023-04-18T09:54:25.066Z,11.93
2023-04-18T09:57:31.363Z,11.25
2023-04-18T10:00:38.247Z,10.75
2023-04-18T10:03:48.486Z,9.85
2023-04-18T10:06:54.248Z,9.65
2023-04-18T10:09:58.455Z,9.70
2023-04-18T10:13:05.373Z,9.52
2023-04-18T10:16:11.050Z,9.35
2023-04-18T10:19:29.551Z,9.32
2023-04-18T10:22:35.475Z,8.52
2023-04-18T10:25:39.948Z,9.43
2023-04-18T10:28:56.504Z,9.13
2023-04-18T10:32:07.016Z,9.05
2023-04-18T10:35:13.569Z,8.63
2023-04-18T10:38:18.214Z,8.80
2023-04-18T10:41:27.602Z,8.25
2023-04-18T10:44:32.156Z,7.82
2023-04-18T10:47:36.684Z,8.00
2023-04-18T10:51:34.750Z,7.50
2023-04-18T10:54:51.970Z,7.25
2023-04-18T10:57:58.544Z,7.07
2023-04-18T11:01:04.654Z,7.72
2023-04-18T11:04:14.003Z,6.20
2023-04-18T11:07:19.385Z,6.30
2023-04-18T11:10:27.103Z,5.93
2023-04-18T11:13:31.908Z,6.35
2023-04-18T11:16:36.403Z,6.18
2023-04-18T11:19:41.174Z,6.78
2023-04-18T11:22:47.715Z,6.25
2023-04-18T11:25:56.381Z,6.38
2023-04-18T11:29:00.792Z,5.97
2023-04-18T11:32:09.480Z,5.72
2023-04-18T11:35:16.076Z,5.78
2023-04-18T11:38:21.699Z,5.80
2023-04-18T11:41:29.707Z,6.00
2023-04-18T11:44:36.335Z,5.57
2023-04-18T11:47:43.220Z,5.18
2023-04-18T11:50:47.836Z,4.57
2023-04-18T11:53:51.996Z,4.90
2023-04-18T11:56:57.549Z,4.95
2023-04-18T12:00:02.153Z,4.50
2023-04-18T12:03:15.668Z,4.30
2023-04-18T12:06:20.372Z,3.75
2023-04-18T12:09:25.228Z,4.30
2023-04-18T12:12:29.835Z,4.75
2023-04-18T12:15:43.490Z,4.70
2023-04-18T12:18:48.224Z,4.47
2023-04-18T12:22:01.990Z,4.75
2023-04-18T12:25:24.330Z,3.90
2023-04-18T12:28:31.211Z,3.85
2023-04-18T12:31:35.771Z,4.10
2023-04-18T12:34:40.320Z,4.60
2023-04-18T12:37:48.272Z,4.80
2023-04-18T12:40:52.725Z,4.15
2023-04-18T12:43:56.929Z,4.90
2023-04-18T12:53:15.871Z,4.30
2023-04-18T12:56:21.052Z,4.20
2023-04-18T12:59:25.448Z,4.72
2023-04-18T13:02:30.094Z,4.95
2023-04-18T13:05:35.714Z,4.65
2023-04-18T13:08:40.179Z,4.57
2023-04-18T13:14:48.591Z,5.85
2023-04-18T13:17:52.918Z,6.15
2023-04-18T13:20:57.215Z,5.53
2023-04-18T13:24:02.971Z,6.63
2023-04-18T13:27:10.539Z,6.07
2023-04-18T13:30:15.496Z,6.00
2023-04-18T13:33:20.247Z,5.32
2023-04-18T13:36:24.546Z,5.35
2023-04-18T13:39:32.202Z,5.30
2023-04-18T13:42:38.608Z,5.43
2023-04-18T13:45:43.342Z,5.20
2023-04-18T13:48:47.783Z,5.30
2023-04-18T13:51:57.776Z,5.93
2023-04-18T13:55:03.706Z,5.80
2023-04-18T13:58:09.791Z,4.70
2023-04-18T14:01:16.288Z,4.63
2023-04-18T14:04:23.058Z,5.68
2023-04-18T14:07:27.716Z,5.80
2023-04-18T14:10:32.037Z,4.95
2023-04-18T14:13:36.286Z,5.65
2023-04-18T14:16:40.909Z,5.07
2023-04-18T14:19:45.211Z,5.40
2023-04-18T14:22:52.376Z,5.20
2023-04-18T14:25:57.701Z,5.38
2023-04-18T14:29:03.957Z,3.92
2023-04-18T14:32:08.499Z,4.65
2023-04-18T14:35:12.969Z,4.43
2023-04-18T14:38:17.554Z,4.30
2023-04-18T14:41:22.616Z,4.25
2023-04-18T14:44:26.801Z,4.18
2023-04-18T14:47:34.206Z,4.15
2023-04-18T14:50:38.723Z,4.38
2023-04-18T14:53:44.178Z,4.25
2023-04-18T14:56:48.314Z,3.92
2023-04-18T14:59:54.415Z,3.80
2023-04-18T15:02:59.180Z,4.75
2023-04-18T15:06:04.284Z,4.40
2023-04-18T15:09:08.704Z,4.60
2023-04-18T15:12:13.012Z,4.70
2023-04-18T15:15:18.888Z,4.53
2023-04-18T15:18:23.777Z,3.97
2023-04-18T15:21:28.428Z,4.47
2023-04-18T15:24:33.085Z,4.25
2023-04-18T15:27:36.993Z,4.47
2023-04-18T15:30:41.493Z,3.92
2023-04-18T15:33:46.820Z,3.45
2023-04-18T15:36:51.431Z,4.00
2023-04-18T15:39:57.032Z,3.58
2023-04-18T15:43:02.643Z,3.92
2023-04-18T15:46:07.171Z,2.80
2023-04-18T15:49:12.237Z,3.20
2023-04-18T15:52:42.656Z,2.95
2023-04-18T15:55:53.957Z,3.33
2023-04-18T15:59:02.920Z,3.63
2023-04-18T16:02:09.512Z,3.80
2023-04-18T16:05:15.386Z,3.33
2023-04-18T16:08:20.861Z,3.40
2023-04-18T16:11:28.976Z,3.10
2023-04-18T16:14:33.702Z,2.65
2023-04-18T16:17:38.339Z,2.40
2023-04-18T16:20:42.782Z,2.55
2023-04-18T16:23:47.282Z,2.20
2023-04-18T16:26:53.534Z,1.92
2023-04-18T16:29:57.979Z,2.22
2023-04-18T16:33:03.910Z,2.30
2023-04-18T16:36:09.812Z,2.50
2023-04-18T16:39:15.815Z,2.15
2023-04-18T16:42:19.939Z,2.50
2023-04-18T16:45:24.602Z,2.42
2023-04-18T16:48:29.721Z,2.00
2023-04-18T16:51:37.103Z,2.50
2023-04-18T16:54:41.449Z,2.25
2023-04-18T16:57:45.711Z,2.05
2023-04-18T17:00:49.964Z,2.42
2023-04-18T17:03:54.526Z,2.22
2023-04-18T17:07:00.612Z,2.40
2023-04-18T17:10:09.935Z,2.42
2023-04-18T17:13:15.021Z,2.83
2023-04-18T17:16:19.374Z,3.22
2023-04-18T17:19:23.985Z,3.35
2023-04-18T17:22:29.217Z,3.30
2023-04-18T17:25:33.489Z,3.58
2023-04-18T17:28:37.810Z,3.42
2023-04-18T17:31:42.129Z,3.53
2023-04-18T17:34:49.011Z,3.67
2023-04-18T17:37:53.641Z,3.42
2023-04-18T17:41:02.205Z,3.65
2023-04-18T17:44:10.442Z,3.58
2023-04-18T17:47:14.623Z,3.42
2023-04-18T17:50:19.283Z,3.75
2023-04-18T17:53:23.697Z,3.90
2023-04-18T17:56:30.368Z,3.78
2023-04-18T17:59:37.588Z,4.07
2023-04-18T18:02:44.548Z,4.05
2023-04-18T18:05:50.786Z,4.47
2023-04-18T18:08:55.940Z,4.50
2023-04-18T18:12:00.212Z,4.88
2023-04-18T18:15:08.422Z,4.30
2023-04-18T18:18:12.657Z,4.50
2023-04-18T18:21:17.899Z,5.07
2023-04-18T18:24:22.424Z,4.82
2023-04-18T18:27:26.744Z,5.20
2023-04-18T18:30:31.226Z,5.28
2023-04-18T18:33:42.622Z,5.45
2023-04-18T18:36:47.443Z,5.95
2023-04-18T18:39:56.276Z,5.80
2023-04-18T18:43:05.937Z,5.57
2023-04-18T18:46:20.540Z,5.75
2023-04-18T18:49:24.976Z,5.63
2023-04-18T18:52:30.849Z,6.53
2023-04-18T18:55:35.528Z,6.35
2023-04-18T18:58:40.431Z,5.65
2023-04-18T19:01:44.629Z,5.60
2023-04-18T19:04:49.001Z,6.15
2023-04-18T19:07:53.854Z,6.45
2023-04-18T19:10:58.141Z,6.28
2023-04-18T19:14:04.064Z,6.72
2023-04-18T19:17:08.577Z,7.55
2023-04-18T19:20:13.415Z,6.75
2023-04-18T19:23:19.263Z,6.82
2023-04-18T19:26:23.426Z,7.88
2023-04-18T19:29:27.643Z,6.10
2023-04-18T19:32:32.597Z,7.25
2023-04-18T19:35:37.996Z,7.72
2023-04-18T19:38:42.639Z,7.55
2023-04-18T19:51:04.690Z,7.05
2023-04-18T19:54:09.269Z,7.05
2023-04-18T19:57:13.573Z,7.22
2023-04-18T20:00:19.864Z,7.45
2023-04-18T20:03:24.300Z,7.32
2023-04-18T20:06:32.325Z,8.05
2023-04-18T20:09:37.673Z,7.97
2023-04-18T20:12:41.926Z,7.68
2023-04-18T20:15:47.377Z,8.18
2023-04-18T20:18:54.187Z,9.90
2023-04-18T20:21:59.629Z,8.38
2023-04-18T20:25:04.101Z,7.55
2023-04-18T20:28:08.761Z,7.93
2023-04-18T20:31:13.274Z,7.93
2023-04-18T20:34:18.949Z,7.35
2023-04-18T20:37:24.533Z,8.15
2023-04-18T20:40:29.279Z,7.95
2023-04-18T20:43:37.265Z,7.00
2023-04-18T20:46:42.126Z,7.78
2023-04-18T20:49:46.994Z,7.45
2023-04-18T20:52:52.011Z,8.27
2023-04-18T20:55:56.644Z,7.05
2023-04-18T20:59:02.446Z,6.45
2023-04-18T21:02:08.458Z,6.78
2023-04-18T21:05:16.800Z,5.95
2023-04-18T21:08:22.070Z,6.05
2023-04-18T21:11:26.858Z,6.30
2023-04-18T21:14:32.578Z,7.13
2023-04-18T21:17:36.956Z,6.38
2023-04-18T21:20:42.027Z,5.97
2023-04-18T21:23:47.909Z,6.05
2023-04-18T21:26:53.108Z,6.18
2023-04-18T21:29:59.357Z,5.47
2023-04-18T21:33:05.896Z,5.72
2023-04-18T21:36:12.925Z,5.32
2023-04-18T21:39:17.852Z,6.35
2023-04-18T21:42:22.538Z,5.75
2023-04-18T21:45:26.953Z,5.53
2023-04-18T21:48:32.702Z,5.13
2023-04-18T21:51:37.110Z,4.95
2023-04-18T21:54:43.910Z,5.45
2023-04-18T21:57:48.483Z,4.45
2023-04-18T22:00:52.919Z,4.90
2023-04-18T22:03:58.263Z,4.70
2023-04-18T22:07:02.757Z,4.65
2023-04-18T22:10:08.964Z,4.40
2023-04-18T22:13:14.642Z,5.22
2023-04-18T22:16:22.269Z,5.05
2023-04-18T22:19:29.730Z,5.05
2023-04-18T22:22:36.002Z,4.90
2023-04-18T22:25:42.471Z,4.93
2023-04-18T22:28:48.422Z,4.90
2023-04-18T22:31:53.521Z,5.28
2023-04-18T22:34:59.121Z,4.90
2023-04-18T22:38:03.844Z,4.53
2023-04-18T22:41:08.885Z,5.15
2023-04-18T22:44:14.344Z,4.90
2023-04-18T22:47:19.441Z,4.72
2023-04-18T22:50:25.111Z,5.63
2023-04-18T22:53:32.223Z,5.18
2023-04-18T22:56:37.078Z,5.00
2023-04-18T22:59:45.291Z,4.85
2023-04-18T23:02:50.098Z,5.35
2023-04-18T23:05:56.465Z,4.60
2023-04-18T23:09:04.037Z,5.72
2023-04-18T23:12:10.107Z,5.20
2023-04-18T23:15:16.438Z,5.13
2023-04-18T23:18:23.153Z,6.07
2023-04-18T23:21:29.211Z,5.80
2023-04-18T23:24:34.493Z,4.93
2023-04-18T23:27:39.681Z,5.80
2023-04-18T23:30:46.069Z,5.88
2023-04-18T23:33:51.157Z,5.35
2023-04-18T23:36:56.124Z,4.95
2023-04-18T23:40:03.034Z,5.68
2023-04-18T23:43:10.200Z,5.40
2023-04-18T23:46:16.378Z,6.43
2023-04-18T23:49:22.150Z,5.45
2023-04-18T23:52:26.842Z,5.50
2023-04-18T23:55:31.826Z,5.10
2023-04-18T23:58:36.916Z,5.63
